sensor_id;sensor_type;location;lat;lon;timestamp;P1;durP1;ratioP1;P2;durP2;ratioP2
68714;SDS011;55692;53.356;10.030;2023-12-20T00:01:05;14.38;;;2.47;;
68714;SDS011;55692;53.356;10.030;2023-12-20T00:03:31;16.48;;;3.17;;
68714;SDS011;55692;53.356;10.030;2023-12-20T00:05:57;13.73;;;2.72;;
68714;SDS011;55692;53.356;10.030;2023-12-20T00:08:23;17.75;;;2.15;;
68714;SDS011;55692;53.356;10.030;2023-12-20T00:10:49;13.57;;;2.08;;
68714;SDS011;55692;53.356;10.030;2023-12-20T00:13:15;13.85;;;2.08;;
68714;SDS011;55692;53.356;10.030;2023-12-20T00:15:41;14.45;;;2.65;;
68714;SDS011;55692;53.356;10.030;2023-12-20T00:18:07;18.38;;;2.53;;
68714;SDS011;55692;53.356;10.030;2023-12-20T00:20:33;15.38;;;2.85;;
68714;SDS011;55692;53.356;10.030;2023-12-20T00:22:59;22.25;;;2.50;;
68714;SDS011;55692;53.356;10.030;2023-12-20T00:25:25;11.77;;;1.92;;
68714;SDS011;55692;53.356;10.030;2023-12-20T00:27:51;23.40;;;3.00;;
68714;SDS011;55692;53.356;10.030;2023-12-20T00:30:17;11.85;;;2.13;;
68714;SDS011;55692;53.356;10.030;2023-12-20T00:32:44;22.85;;;2.35;;
68714;SDS011;55692;53.356;10.030;2023-12-20T00:35:18;19.27;;;1.98;;
68714;SDS011;55692;53.356;10.030;2023-12-20T00:37:44;19.33;;;2.45;;
68714;SDS011;55692;53.356;10.030;2023-12-20T00:40:10;16.35;;;2.13;;
68714;SDS011;55692;53.356;10.030;2023-12-20T00:42:36;12.30;;;2.20;;
68714;SDS011;55692;53.356;10.030;2023-12-20T00:45:02;11.63;;;1.80;;
68714;SDS011;55692;53.356;10.030;2023-12-20T00:47:29;15.35;;;1.80;;
68714;SDS011;55692;53.356;10.030;2023-12-20T00:49:55;11.82;;;1.95;;
68714;SDS011;55692;53.356;10.030;2023-12-20T00:52:21;14.88;;;2.00;;
68714;SDS011;55692;53.356;10.030;2023-12-20T00:54:47;19.67;;;2.60;;
68714;SDS011;55692;53.356;10.030;2023-12-20T00:57:14;16.42;;;2.45;;
68714;SDS011;55692;53.356;10.030;2023-12-20T00:59:40;21.23;;;3.13;;
68714;SDS011;55692;53.356;10.030;2023-12-20T01:02:06;17.10;;;2.58;;
68714;SDS011;55692;53.356;10.030;2023-12-20T01:04:32;18.13;;;2.72;;
68714;SDS011;55692;53.356;10.030;2023-12-20T01:06:58;14.00;;;1.98;;
68714;SDS011;55692;53.356;10.030;2023-12-20T01:09:24;12.07;;;3.13;;
68714;SDS011;55692;53.356;10.030;2023-12-20T01:11:52;23.52;;;2.38;;
68714;SDS011;55692;53.356;10.030;2023-12-20T01:14:18;16.35;;;2.20;;
68714;SDS011;55692;53.356;10.030;2023-12-20T01:16:44;22.00;;;2.22;;
68714;SDS011;55692;53.356;10.030;2023-12-20T01:19:10;20.23;;;2.28;;
68714;SDS011;55692;53.356;10.030;2023-12-20T01:21:37;19.40;;;2.47;;
68714;SDS011;55692;53.356;10.030;2023-12-20T01:24:03;15.38;;;2.78;;
68714;SDS011;55692;53.356;10.030;2023-12-20T01:26:29;22.85;;;2.22;;
68714;SDS011;55692;53.356;10.030;2023-12-20T01:28:55;18.08;;;2.40;;
68714;SDS011;55692;53.356;10.030;2023-12-20T01:31:21;23.50;;;2.30;;
68714;SDS011;55692;53.356;10.030;2023-12-20T01:33:47;19.40;;;2.35;;
68714;SDS011;55692;53.356;10.030;2023-12-20T01:36:13;8.10;;;1.88;;
68714;SDS011;55692;53.356;10.030;2023-12-20T01:38:39;13.90;;;1.95;;
68714;SDS011;55692;53.356;10.030;2023-12-20T01:41:05;18.60;;;2.08;;
68714;SDS011;55692;53.356;10.030;2023-12-20T01:43:31;19.20;;;3.08;;
68714;SDS011;55692;53.356;10.030;2023-12-20T01:45:57;16.05;;;1.88;;
68714;SDS011;55692;53.356;10.030;2023-12-20T01:48:24;27.23;;;4.18;;
68714;SDS011;55692;53.356;10.030;2023-12-20T01:50:51;18.67;;;3.10;;
68714;SDS011;55692;53.356;10.030;2023-12-20T01:53:17;22.42;;;2.03;;
68714;SDS011;55692;53.356;10.030;2023-12-20T01:55:44;17.48;;;1.90;;
68714;SDS011;55692;53.356;10.030;2023-12-20T01:58:11;12.63;;;2.25;;
68714;SDS011;55692;53.356;10.030;2023-12-20T02:00:37;13.35;;;2.28;;
68714;SDS011;55692;53.356;10.030;2023-12-20T02:03:04;19.95;;;2.30;;
68714;SDS011;55692;53.356;10.030;2023-12-20T02:05:31;20.48;;;3.25;;
68714;SDS011;55692;53.356;10.030;2023-12-20T02:07:57;18.42;;;1.40;;
68714;SDS011;55692;53.356;10.030;2023-12-20T02:10:23;20.75;;;2.30;;
68714;SDS011;55692;53.356;10.030;2023-12-20T02:12:50;23.65;;;2.45;;
68714;SDS011;55692;53.356;10.030;2023-12-20T02:15:16;23.05;;;2.25;;
68714;SDS011;55692;53.356;10.030;2023-12-20T02:17:42;19.00;;;1.80;;
68714;SDS011;55692;53.356;10.030;2023-12-20T02:20:08;30.05;;;3.30;;
68714;SDS011;55692;53.356;10.030;2023-12-20T02:22:34;13.90;;;2.10;;
68714;SDS011;55692;53.356;10.030;2023-12-20T02:25:00;18.58;;;2.83;;
68714;SDS011;55692;53.356;10.030;2023-12-20T02:27:26;17.27;;;2.75;;
68714;SDS011;55692;53.356;10.030;2023-12-20T02:29:53;14.93;;;2.30;;
68714;SDS011;55692;53.356;10.030;2023-12-20T02:32:19;19.42;;;4.60;;
68714;SDS011;55692;53.356;10.030;2023-12-20T02:34:49;25.85;;;2.80;;
68714;SDS011;55692;53.356;10.030;2023-12-20T02:37:15;20.45;;;1.95;;
68714;SDS011;55692;53.356;10.030;2023-12-20T02:39:41;21.50;;;3.78;;
68714;SDS011;55692;53.356;10.030;2023-12-20T02:42:07;30.42;;;3.78;;
68714;SDS011;55692;53.356;10.030;2023-12-20T02:44:33;13.80;;;3.05;;
68714;SDS011;55692;53.356;10.030;2023-12-20T02:46:59;20.77;;;3.78;;
68714;SDS011;55692;53.356;10.030;2023-12-20T02:49:25;17.45;;;3.17;;
68714;SDS011;55692;53.356;10.030;2023-12-20T02:51:51;20.00;;;2.65;;
68714;SDS011;55692;53.356;10.030;2023-12-20T02:54:17;18.08;;;2.88;;
68714;SDS011;55692;53.356;10.030;2023-12-20T02:56:43;21.17;;;3.05;;
68714;SDS011;55692;53.356;10.030;2023-12-20T02:59:09;23.50;;;3.42;;
68714;SDS011;55692;53.356;10.030;2023-12-20T03:01:35;20.35;;;4.00;;
68714;SDS011;55692;53.356;10.030;2023-12-20T03:04:01;15.48;;;3.75;;
68714;SDS011;55692;53.356;10.030;2023-12-20T03:06:27;16.35;;;4.05;;
68714;SDS011;55692;53.356;10.030;2023-12-20T03:08:53;22.00;;;4.85;;
68714;SDS011;55692;53.356;10.030;2023-12-20T03:11:19;29.23;;;4.72;;
68714;SDS011;55692;53.356;10.030;2023-12-20T03:13:45;18.48;;;4.80;;
68714;SDS011;55692;53.356;10.030;2023-12-20T03:16:11;26.23;;;4.50;;
68714;SDS011;55692;53.356;10.030;2023-12-20T03:18:37;17.60;;;4.85;;
68714;SDS011;55692;53.356;10.030;2023-12-20T03:21:04;16.75;;;4.05;;
68714;SDS011;55692;53.356;10.030;2023-12-20T03:23:30;33.90;;;6.85;;
68714;SDS011;55692;53.356;10.030;2023-12-20T03:25:57;20.65;;;4.30;;
68714;SDS011;55692;53.356;10.030;2023-12-20T03:28:23;18.27;;;4.60;;
68714;SDS011;55692;53.356;10.030;2023-12-20T03:30:49;22.92;;;4.43;;
68714;SDS011;55692;53.356;10.030;2023-12-20T03:33:15;14.52;;;3.00;;
68714;SDS011;55692;53.356;10.030;2023-12-20T03:35:41;19.15;;;3.35;;
68714;SDS011;55692;53.356;10.030;2023-12-20T03:38:07;17.60;;;2.85;;
68714;SDS011;55692;53.356;10.030;2023-12-20T03:40:34;15.98;;;3.15;;
68714;SDS011;55692;53.356;10.030;2023-12-20T03:43:00;17.98;;;3.60;;
68714;SDS011;55692;53.356;10.030;2023-12-20T03:45:26;13.07;;;2.88;;
68714;SDS011;55692;53.356;10.030;2023-12-20T03:47:52;15.27;;;3.10;;
68714;SDS011;55692;53.356;10.030;2023-12-20T03:50:24;20.38;;;3.63;;
68714;SDS011;55692;53.356;10.030;2023-12-20T03:52:51;16.83;;;3.65;;
68714;SDS011;55692;53.356;10.030;2023-12-20T03:55:17;22.27;;;3.63;;
68714;SDS011;55692;53.356;10.030;2023-12-20T03:57:43;17.33;;;3.63;;
68714;SDS011;55692;53.356;10.030;2023-12-20T04:00:09;18.63;;;4.10;;
68714;SDS011;55692;53.356;10.030;2023-12-20T04:02:38;13.50;;;3.17;;
68714;SDS011;55692;53.356;10.030;2023-12-20T04:05:05;19.23;;;3.20;;
68714;SDS011;55692;53.356;10.030;2023-12-20T04:07:31;19.42;;;3.55;;
68714;SDS011;55692;53.356;10.030;2023-12-20T04:09:57;20.83;;;4.13;;
68714;SDS011;55692;53.356;10.030;2023-12-20T04:12:23;22.10;;;4.90;;
68714;SDS011;55692;53.356;10.030;2023-12-20T04:14:49;14.55;;;3.10;;
68714;SDS011;55692;53.356;10.030;2023-12-20T04:17:15;15.48;;;2.97;;
68714;SDS011;55692;53.356;10.030;2023-12-20T04:19:41;22.02;;;4.15;;
68714;SDS011;55692;53.356;10.030;2023-12-20T04:22:08;16.08;;;4.03;;
68714;SDS011;55692;53.356;10.030;2023-12-20T04:24:34;13.10;;;4.38;;
68714;SDS011;55692;53.356;10.030;2023-12-20T04:27:00;19.35;;;3.70;;
68714;SDS011;55692;53.356;10.030;2023-12-20T04:29:26;16.23;;;3.50;;
68714;SDS011;55692;53.356;10.030;2023-12-20T04:31:52;23.83;;;4.38;;
68714;SDS011;55692;53.356;10.030;2023-12-20T04:34:18;14.23;;;4.38;;
68714;SDS011;55692;53.356;10.030;2023-12-20T04:36:44;21.23;;;5.03;;
68714;SDS011;55692;53.356;10.030;2023-12-20T04:39:11;21.67;;;4.90;;
68714;SDS011;55692;53.356;10.030;2023-12-20T04:41:37;15.90;;;4.25;;
68714;SDS011;55692;53.356;10.030;2023-12-20T04:44:03;21.58;;;4.55;;
68714;SDS011;55692;53.356;10.030;2023-12-20T04:46:29;20.42;;;4.78;;
68714;SDS011;55692;53.356;10.030;2023-12-20T04:48:55;17.77;;;4.75;;
68714;SDS011;55692;53.356;10.030;2023-12-20T04:51:21;24.55;;;5.47;;
68714;SDS011;55692;53.356;10.030;2023-12-20T04:53:47;20.83;;;4.50;;
68714;SDS011;55692;53.356;10.030;2023-12-20T04:56:13;17.98;;;4.63;;
68714;SDS011;55692;53.356;10.030;2023-12-20T04:58:39;26.30;;;5.85;;
68714;SDS011;55692;53.356;10.030;2023-12-20T05:01:05;19.10;;;4.97;;
68714;SDS011;55692;53.356;10.030;2023-12-20T05:03:32;17.38;;;5.88;;
68714;SDS011;55692;53.356;10.030;2023-12-20T05:05:58;21.83;;;8.57;;
68714;SDS011;55692;53.356;10.030;2023-12-20T05:08:24;20.33;;;6.10;;
68714;SDS011;55692;53.356;10.030;2023-12-20T05:10:50;20.17;;;4.43;;
68714;SDS011;55692;53.356;10.030;2023-12-20T05:13:16;14.57;;;4.72;;
68714;SDS011;55692;53.356;10.030;2023-12-20T05:15:42;20.95;;;4.95;;
68714;SDS011;55692;53.356;10.030;2023-12-20T05:18:08;22.67;;;5.75;;
68714;SDS011;55692;53.356;10.030;2023-12-20T05:20:34;30.15;;;5.30;;
68714;SDS011;55692;53.356;10.030;2023-12-20T05:23:00;22.92;;;6.07;;
68714;SDS011;55692;53.356;10.030;2023-12-20T05:25:26;24.58;;;4.93;;
68714;SDS011;55692;53.356;10.030;2023-12-20T05:27:52;23.13;;;5.40;;
68714;SDS011;55692;53.356;10.030;2023-12-20T05:30:18;20.23;;;5.80;;
68714;SDS011;55692;53.356;10.030;2023-12-20T05:32:44;19.70;;;5.07;;
68714;SDS011;55692;53.356;10.030;2023-12-20T05:35:10;23.42;;;4.90;;
68714;SDS011;55692;53.356;10.030;2023-12-20T05:37:36;21.13;;;4.95;;
68714;SDS011;55692;53.356;10.030;2023-12-20T05:40:02;25.92;;;5.15;;
68714;SDS011;55692;53.356;10.030;2023-12-20T05:42:29;22.55;;;6.25;;
68714;SDS011;55692;53.356;10.030;2023-12-20T05:44:55;16.05;;;3.30;;
68714;SDS011;55692;53.356;10.030;2023-12-20T05:47:21;21.85;;;5.00;;
68714;SDS011;55692;53.356;10.030;2023-12-20T05:49:47;16.70;;;3.42;;
68714;SDS011;55692;53.356;10.030;2023-12-20T05:52:13;11.40;;;3.28;;
68714;SDS011;55692;53.356;10.030;2023-12-20T05:54:39;17.58;;;4.95;;
68714;SDS011;55692;53.356;10.030;2023-12-20T05:57:05;30.70;;;6.47;;
68714;SDS011;55692;53.356;10.030;2023-12-20T05:59:31;26.27;;;5.63;;
68714;SDS011;55692;53.356;10.030;2023-12-20T06:01:57;25.17;;;5.32;;
68714;SDS011;55692;53.356;10.030;2023-12-20T06:04:23;19.38;;;5.22;;
68714;SDS011;55692;53.356;10.030;2023-12-20T06:06:49;18.80;;;5.35;;
68714;SDS011;55692;53.356;10.030;2023-12-20T06:09:15;21.75;;;5.30;;
68714;SDS011;55692;53.356;10.030;2023-12-20T06:11:41;16.85;;;4.70;;
68714;SDS011;55692;53.356;10.030;2023-12-20T06:14:07;15.18;;;4.60;;
68714;SDS011;55692;53.356;10.030;2023-12-20T06:16:33;25.92;;;4.93;;
68714;SDS011;55692;53.356;10.030;2023-12-20T06:18:59;12.82;;;3.97;;
68714;SDS011;55692;53.356;10.030;2023-12-20T06:21:25;18.85;;;4.90;;
68714;SDS011;55692;53.356;10.030;2023-12-20T06:23:51;18.15;;;4.90;;
68714;SDS011;55692;53.356;10.030;2023-12-20T06:26:17;13.98;;;4.22;;
68714;SDS011;55692;53.356;10.030;2023-12-20T06:28:43;12.35;;;4.25;;
68714;SDS011;55692;53.356;10.030;2023-12-20T06:31:09;22.10;;;4.80;;
68714;SDS011;55692;53.356;10.030;2023-12-20T06:33:35;20.70;;;5.03;;
68714;SDS011;55692;53.356;10.030;2023-12-20T06:36:01;21.92;;;4.63;;
68714;SDS011;55692;53.356;10.030;2023-12-20T06:38:27;23.17;;;5.10;;
68714;SDS011;55692;53.356;10.030;2023-12-20T06:40:53;16.40;;;5.40;;
68714;SDS011;55692;53.356;10.030;2023-12-20T06:43:20;22.58;;;5.00;;
68714;SDS011;55692;53.356;10.030;2023-12-20T06:45:46;18.25;;;5.32;;
68714;SDS011;55692;53.356;10.030;2023-12-20T06:48:12;12.18;;;5.05;;
68714;SDS011;55692;53.356;10.030;2023-12-20T06:50:39;22.00;;;5.82;;
68714;SDS011;55692;53.356;10.030;2023-12-20T06:53:05;17.13;;;5.00;;
68714;SDS011;55692;53.356;10.030;2023-12-20T06:55:32;21.88;;;5.05;;
68714;SDS011;55692;53.356;10.030;2023-12-20T06:57:58;16.30;;;4.90;;
68714;SDS011;55692;53.356;10.030;2023-12-20T07:00:24;21.48;;;7.05;;
68714;SDS011;55692;53.356;10.030;2023-12-20T07:02:50;20.75;;;4.82;;
68714;SDS011;55692;53.356;10.030;2023-12-20T07:05:17;20.23;;;6.10;;
68714;SDS011;55692;53.356;10.030;2023-12-20T07:07:45;22.58;;;5.38;;
68714;SDS011;55692;53.356;10.030;2023-12-20T07:10:12;22.42;;;5.30;;
68714;SDS011;55692;53.356;10.030;2023-12-20T07:12:38;21.05;;;5.47;;
68714;SDS011;55692;53.356;10.030;2023-12-20T07:15:04;18.17;;;5.05;;
68714;SDS011;55692;53.356;10.030;2023-12-20T07:17:33;30.67;;;6.47;;
68714;SDS011;55692;53.356;10.030;2023-12-20T07:19:59;26.65;;;6.35;;
68714;SDS011;55692;53.356;10.030;2023-12-20T07:22:32;34.40;;;5.55;;
68714;SDS011;55692;53.356;10.030;2023-12-20T07:24:58;17.88;;;4.85;;
68714;SDS011;55692;53.356;10.030;2023-12-20T07:27:24;24.55;;;5.03;;
68714;SDS011;55692;53.356;10.030;2023-12-20T07:29:50;23.67;;;5.18;;
68714;SDS011;55692;53.356;10.030;2023-12-20T07:32:16;28.08;;;5.95;;
68714;SDS011;55692;53.356;10.030;2023-12-20T07:34:42;23.80;;;5.55;;
68714;SDS011;55692;53.356;10.030;2023-12-20T07:37:08;23.67;;;5.20;;
68714;SDS011;55692;53.356;10.030;2023-12-20T07:39:37;18.45;;;4.88;;
68714;SDS011;55692;53.356;10.030;2023-12-20T07:42:03;22.13;;;5.07;;
68714;SDS011;55692;53.356;10.030;2023-12-20T07:44:29;31.27;;;6.50;;
68714;SDS011;55692;53.356;10.030;2023-12-20T07:46:55;18.23;;;4.38;;
68714;SDS011;55692;53.356;10.030;2023-12-20T07:49:21;21.52;;;5.30;;
68714;SDS011;55692;53.356;10.030;2023-12-20T07:51:47;22.13;;;4.22;;
68714;SDS011;55692;53.356;10.030;2023-12-20T07:54:13;26.58;;;5.32;;
68714;SDS011;55692;53.356;10.030;2023-12-20T07:56:39;30.20;;;6.38;;
68714;SDS011;55692;53.356;10.030;2023-12-20T07:59:05;20.30;;;4.75;;
68714;SDS011;55692;53.356;10.030;2023-12-20T08:01:31;30.77;;;6.47;;
68714;SDS011;55692;53.356;10.030;2023-12-20T08:03:57;25.80;;;4.95;;
68714;SDS011;55692;53.356;10.030;2023-12-20T08:06:23;29.55;;;5.28;;
68714;SDS011;55692;53.356;10.030;2023-12-20T08:08:49;32.50;;;5.13;;
68714;SDS011;55692;53.356;10.030;2023-12-20T08:11:15;31.05;;;6.07;;
68714;SDS011;55692;53.356;10.030;2023-12-20T08:13:41;21.73;;;4.38;;
68714;SDS011;55692;53.356;10.030;2023-12-20T08:16:07;19.67;;;4.65;;
68714;SDS011;55692;53.356;10.030;2023-12-20T08:18:33;25.50;;;5.90;;
68714;SDS011;55692;53.356;10.030;2023-12-20T08:20:59;26.08;;;5.60;;
68714;SDS011;55692;53.356;10.030;2023-12-20T08:23:26;18.77;;;4.20;;
68714;SDS011;55692;53.356;10.030;2023-12-20T08:25:52;26.27;;;4.43;;
68714;SDS011;55692;53.356;10.030;2023-12-20T08:28:18;24.40;;;4.90;;
68714;SDS011;55692;53.356;10.030;2023-12-20T08:30:44;23.23;;;4.60;;
68714;SDS011;55692;53.356;10.030;2023-12-20T08:33:10;23.20;;;4.15;;
68714;SDS011;55692;53.356;10.030;2023-12-20T08:35:38;21.23;;;5.35;;
68714;SDS011;55692;53.356;10.030;2023-12-20T08:38:05;24.02;;;4.68;;
68714;SDS011;55692;53.356;10.030;2023-12-20T08:40:31;15.25;;;4.07;;
68714;SDS011;55692;53.356;10.030;2023-12-20T08:42:57;17.48;;;4.47;;
68714;SDS011;55692;53.356;10.030;2023-12-20T08:45:23;29.35;;;4.68;;
68714;SDS011;55692;53.356;10.030;2023-12-20T08:47:49;17.52;;;4.78;;
68714;SDS011;55692;53.356;10.030;2023-12-20T08:50:15;15.90;;;4.82;;
68714;SDS011;55692;53.356;10.030;2023-12-20T08:52:41;22.45;;;4.35;;
68714;SDS011;55692;53.356;10.030;2023-12-20T08:55:08;19.75;;;3.92;;
68714;SDS011;55692;53.356;10.030;2023-12-20T08:57:35;15.20;;;3.88;;
68714;SDS011;55692;53.356;10.030;2023-12-20T09:00:01;17.48;;;3.17;;
68714;SDS011;55692;53.356;10.030;2023-12-20T09:02:28;18.92;;;3.50;;
68714;SDS011;55692;53.356;10.030;2023-12-20T09:04:54;11.23;;;3.00;;
68714;SDS011;55692;53.356;10.030;2023-12-20T09:07:26;15.43;;;2.63;;
68714;SDS011;55692;53.356;10.030;2023-12-20T09:09:55;11.98;;;2.88;;
68714;SDS011;55692;53.356;10.030;2023-12-20T09:12:21;15.00;;;2.92;;
68714;SDS011;55692;53.356;10.030;2023-12-20T09:14:48;14.93;;;2.67;;
68714;SDS011;55692;53.356;10.030;2023-12-20T09:17:14;10.75;;;2.40;;
68714;SDS011;55692;53.356;10.030;2023-12-20T09:19:41;17.25;;;2.28;;
68714;SDS011;55692;53.356;10.030;2023-12-20T09:22:08;22.92;;;3.28;;
68714;SDS011;55692;53.356;10.030;2023-12-20T09:24:34;13.90;;;2.92;;
68714;SDS011;55692;53.356;10.030;2023-12-20T09:27:00;20.42;;;2.90;;
68714;SDS011;55692;53.356;10.030;2023-12-20T09:29:27;18.83;;;3.05;;
68714;SDS011;55692;53.356;10.030;2023-12-20T09:31:53;11.52;;;2.92;;
68714;SDS011;55692;53.356;10.030;2023-12-20T09:34:19;19.33;;;2.97;;
68714;SDS011;55692;53.356;10.030;2023-12-20T09:36:46;12.45;;;2.70;;
68714;SDS011;55692;53.356;10.030;2023-12-20T09:39:13;21.85;;;2.58;;
68714;SDS011;55692;53.356;10.030;2023-12-20T09:41:42;8.10;;;1.48;;
68714;SDS011;55692;53.356;10.030;2023-12-20T09:44:08;5.13;;;1.13;;
68714;SDS011;55692;53.356;10.030;2023-12-20T09:46:38;7.13;;;1.30;;
68714;SDS011;55692;53.356;10.030;2023-12-20T09:49:08;7.72;;;1.45;;
68714;SDS011;55692;53.356;10.030;2023-12-20T09:51:34;7.10;;;2.38;;
68714;SDS011;55692;53.356;10.030;2023-12-20T09:54:00;8.65;;;2.00;;
68714;SDS011;55692;53.356;10.030;2023-12-20T09:56:29;5.65;;;1.35;;
68714;SDS011;55692;53.356;10.030;2023-12-20T09:58:55;2.42;;;1.00;;
68714;SDS011;55692;53.356;10.030;2023-12-20T10:01:21;7.53;;;1.48;;
68714;SDS011;55692;53.356;10.030;2023-12-20T10:03:48;5.75;;;1.17;;
68714;SDS011;55692;53.356;10.030;2023-12-20T10:06:16;3.75;;;1.05;;
68714;SDS011;55692;53.356;10.030;2023-12-20T10:08:42;7.50;;;1.40;;
68714;SDS011;55692;53.356;10.030;2023-12-20T10:11:08;9.40;;;1.10;;
68714;SDS011;55692;53.356;10.030;2023-12-20T10:13:39;4.10;;;1.17;;
68714;SDS011;55692;53.356;10.030;2023-12-20T10:16:05;3.75;;;0.88;;
68714;SDS011;55692;53.356;10.030;2023-12-20T10:18:32;4.30;;;0.77;;
68714;SDS011;55692;53.356;10.030;2023-12-20T10:20:59;3.78;;;0.52;;
68714;SDS011;55692;53.356;10.030;2023-12-20T10:23:26;5.15;;;0.70;;
68714;SDS011;55692;53.356;10.030;2023-12-20T10:25:58;3.00;;;0.50;;
68714;SDS011;55692;53.356;10.030;2023-12-20T10:30:54;6.90;;;1.15;;
68714;SDS011;55692;53.356;10.030;2023-12-20T10:33:24;1.98;;;0.40;;
68714;SDS011;55692;53.356;10.030;2023-12-20T10:35:50;3.47;;;0.50;;
68714;SDS011;55692;53.356;10.030;2023-12-20T10:38:17;1.50;;;0.45;;
68714;SDS011;55692;53.356;10.030;2023-12-20T10:40:44;2.97;;;0.43;;
68714;SDS011;55692;53.356;10.030;2023-12-20T10:43:11;1.65;;;0.40;;
68714;SDS011;55692;53.356;10.030;2023-12-20T10:45:37;3.20;;;0.40;;
68714;SDS011;55692;53.356;10.030;2023-12-20T10:48:03;2.55;;;0.55;;
68714;SDS011;55692;53.356;10.030;2023-12-20T10:50:30;2.88;;;0.40;;
68714;SDS011;55692;53.356;10.030;2023-12-20T10:52:56;3.17;;;0.38;;
68714;SDS011;55692;53.356;10.030;2023-12-20T10:55:23;4.32;;;0.60;;
68714;SDS011;55692;53.356;10.030;2023-12-20T10:58:02;2.67;;;0.50;;
68714;SDS011;55692;53.356;10.030;2023-12-20T11:00:32;5.47;;;0.80;;
68714;SDS011;55692;53.356;10.030;2023-12-20T11:03:00;3.78;;;0.73;;
68714;SDS011;55692;53.356;10.030;2023-12-20T11:05:33;3.95;;;0.55;;
68714;SDS011;55692;53.356;10.030;2023-12-20T11:08:03;5.28;;;0.70;;
68714;SDS011;55692;53.356;10.030;2023-12-20T11:13:16;4.97;;;0.88;;
68714;SDS011;55692;53.356;10.030;2023-12-20T11:15:43;9.20;;;0.70;;
68714;SDS011;55692;53.356;10.030;2023-12-20T11:18:09;9.45;;;1.17;;
68714;SDS011;55692;53.356;10.030;2023-12-20T11:20:36;4.38;;;0.65;;
68714;SDS011;55692;53.356;10.030;2023-12-20T11:23:02;3.67;;;0.95;;
68714;SDS011;55692;53.356;10.030;2023-12-20T11:25:29;8.02;;;0.90;;
68714;SDS011;55692;53.356;10.030;2023-12-20T11:28:10;9.18;;;0.77;;
68714;SDS011;55692;53.356;10.030;2023-12-20T11:30:45;5.85;;;1.33;;
68714;SDS011;55692;53.356;10.030;2023-12-20T11:33:15;8.35;;;1.20;;
68714;SDS011;55692;53.356;10.030;2023-12-20T11:35:41;14.98;;;1.55;;
68714;SDS011;55692;53.356;10.030;2023-12-20T11:38:10;7.03;;;1.27;;
68714;SDS011;55692;53.356;10.030;2023-12-20T11:40:36;5.88;;;1.38;;
68714;SDS011;55692;53.356;10.030;2023-12-20T11:43:03;14.32;;;2.08;;
68714;SDS011;55692;53.356;10.030;2023-12-20T11:45:30;10.93;;;1.70;;
68714;SDS011;55692;53.356;10.030;2023-12-20T11:47:57;14.00;;;1.60;;
68714;SDS011;55692;53.356;10.030;2023-12-20T11:50:23;6.93;;;1.10;;
68714;SDS011;55692;53.356;10.030;2023-12-20T11:52:51;11.02;;;1.23;;
68714;SDS011;55692;53.356;10.030;2023-12-20T11:55:17;8.20;;;1.17;;
68714;SDS011;55692;53.356;10.030;2023-12-20T11:57:43;10.45;;;2.20;;
68714;SDS011;55692;53.356;10.030;2023-12-20T12:00:13;10.35;;;1.73;;
68714;SDS011;55692;53.356;10.030;2023-12-20T12:02:39;13.48;;;1.95;;
68714;SDS011;55692;53.356;10.030;2023-12-20T12:05:06;11.13;;;2.60;;
68714;SDS011;55692;53.356;10.030;2023-12-20T12:07:33;9.27;;;1.23;;
68714;SDS011;55692;53.356;10.030;2023-12-20T12:09:59;15.30;;;1.63;;
68714;SDS011;55692;53.356;10.030;2023-12-20T12:12:25;14.55;;;1.67;;
68714;SDS011;55692;53.356;10.030;2023-12-20T12:14:52;9.55;;;1.55;;
68714;SDS011;55692;53.356;10.030;2023-12-20T12:17:18;8.63;;;1.10;;
68714;SDS011;55692;53.356;10.030;2023-12-20T12:19:44;10.02;;;1.40;;
68714;SDS011;55692;53.356;10.030;2023-12-20T12:22:13;7.43;;;1.45;;
68714;SDS011;55692;53.356;10.030;2023-12-20T12:24:40;11.63;;;2.45;;
68714;SDS011;55692;53.356;10.030;2023-12-20T12:27:06;7.70;;;1.33;;
68714;SDS011;55692;53.356;10.030;2023-12-20T12:29:33;7.72;;;1.02;;
68714;SDS011;55692;53.356;10.030;2023-12-20T12:32:00;4.72;;;0.93;;
68714;SDS011;55692;53.356;10.030;2023-12-20T12:34:28;9.50;;;1.35;;
68714;SDS011;55692;53.356;10.030;2023-12-20T12:36:55;5.03;;;0.77;;
68714;SDS011;55692;53.356;10.030;2023-12-20T12:39:22;7.57;;;1.40;;
68714;SDS011;55692;53.356;10.030;2023-12-20T12:41:50;6.05;;;0.85;;
68714;SDS011;55692;53.356;10.030;2023-12-20T12:44:16;5.45;;;0.98;;
68714;SDS011;55692;53.356;10.030;2023-12-20T12:46:43;5.80;;;1.10;;
68714;SDS011;55692;53.356;10.030;2023-12-20T12:49:09;7.55;;;1.27;;
68714;SDS011;55692;53.356;10.030;2023-12-20T12:51:35;9.00;;;1.08;;
68714;SDS011;55692;53.356;10.030;2023-12-20T12:54:01;12.65;;;1.63;;
68714;SDS011;55692;53.356;10.030;2023-12-20T12:56:27;6.18;;;1.15;;
68714;SDS011;55692;53.356;10.030;2023-12-20T12:58:53;3.45;;;1.05;;
68714;SDS011;55692;53.356;10.030;2023-12-20T13:01:19;7.10;;;1.17;;
68714;SDS011;55692;53.356;10.030;2023-12-20T13:03:45;8.98;;;1.13;;
68714;SDS011;55692;53.356;10.030;2023-12-20T13:06:12;5.65;;;1.25;;
68714;SDS011;55692;53.356;10.030;2023-12-20T13:08:38;10.43;;;1.20;;
68714;SDS011;55692;53.356;10.030;2023-12-20T13:11:04;11.85;;;1.10;;
68714;SDS011;55692;53.356;10.030;2023-12-20T13:13:30;7.10;;;1.23;;
68714;SDS011;55692;53.356;10.030;2023-12-20T13:15:56;5.93;;;1.92;;
68714;SDS011;55692;53.356;10.030;2023-12-20T13:18:22;6.22;;;0.95;;
68714;SDS011;55692;53.356;10.030;2023-12-20T13:20:48;17.52;;;1.45;;
68714;SDS011;55692;53.356;10.030;2023-12-20T13:23:15;6.72;;;1.42;;
68714;SDS011;55692;53.356;10.030;2023-12-20T13:25:43;17.20;;;1.70;;
68714;SDS011;55692;53.356;10.030;2023-12-20T13:28:12;17.75;;;2.20;;
68714;SDS011;55692;53.356;10.030;2023-12-20T13:30:38;8.35;;;1.60;;
68714;SDS011;55692;53.356;10.030;2023-12-20T13:33:05;17.10;;;2.25;;
68714;SDS011;55692;53.356;10.030;2023-12-20T13:35:31;14.50;;;2.10;;
68714;SDS011;55692;53.356;10.030;2023-12-20T13:37:58;8.73;;;1.70;;
68714;SDS011;55692;53.356;10.030;2023-12-20T13:40:24;13.38;;;2.35;;
68714;SDS011;55692;53.356;10.030;2023-12-20T13:42:50;9.45;;;1.77;;
68714;SDS011;55692;53.356;10.030;2023-12-20T13:45:16;14.55;;;1.95;;
68714;SDS011;55692;53.356;10.030;2023-12-20T13:47:42;16.83;;;2.88;;
68714;SDS011;55692;53.356;10.030;2023-12-20T13:50:08;18.85;;;2.42;;
68714;SDS011;55692;53.356;10.030;2023-12-20T13:52:34;15.55;;;2.95;;
68714;SDS011;55692;53.356;10.030;2023-12-20T13:55:01;17.38;;;2.53;;
68714;SDS011;55692;53.356;10.030;2023-12-20T13:57:27;13.52;;;2.55;;
68714;SDS011;55692;53.356;10.030;2023-12-20T13:59:54;15.82;;;2.60;;
68714;SDS011;55692;53.356;10.030;2023-12-20T14:02:22;16.23;;;2.95;;
68714;SDS011;55692;53.356;10.030;2023-12-20T14:04:48;21.23;;;3.42;;
68714;SDS011;55692;53.356;10.030;2023-12-20T14:07:14;18.98;;;2.78;;
68714;SDS011;55692;53.356;10.030;2023-12-20T14:09:41;23.60;;;3.30;;
68714;SDS011;55692;53.356;10.030;2023-12-20T14:12:13;14.07;;;2.85;;
68714;SDS011;55692;53.356;10.030;2023-12-20T14:14:39;21.15;;;3.03;;
68714;SDS011;55692;53.356;10.030;2023-12-20T14:17:05;23.27;;;3.25;;
68714;SDS011;55692;53.356;10.030;2023-12-20T14:19:31;15.40;;;3.28;;
68714;SDS011;55692;53.356;10.030;2023-12-20T14:21:58;14.80;;;2.78;;
68714;SDS011;55692;53.356;10.030;2023-12-20T14:24:26;22.27;;;3.80;;